BEE045T EGHI-EGFF
Flight info
| Callsign | BEE045T |
|---|---|
| Flight time | 0h 32m |
| Altitude | 15000 |
| Route | PEPIS Y321 NUBRI N14 HEKXA Q63 SAWPE |
| Aircraft | DH8D/M-SDE2E3FGRY/H |
Departure
| Time | 2026-05-01 14:42 |
|---|---|
| Airport | Southampton Airport (EGHI) |
Arrival
| Time | 2026-05-01 15:15 |
|---|---|
| Airport | Cardiff International Airport (EGFF) |
| Time | Latitude | Longitude | Altitude | Speed | Heading |
|---|---|---|---|---|---|
| 2026-05-01 13:56 | 50.94968 | -1.36120 | 53 ft | 0 kts | 20° |
| 2026-05-01 14:28 | 50.94969 | -1.36120 | 53 ft | 0 kts | 20° |
| 2026-05-01 14:28 | 50.94967 | -1.36121 | 53 ft | 1 kts | 20° |
| 2026-05-01 14:28 | 50.94953 | -1.36129 | 53 ft | 2 kts | 20° |
| 2026-05-01 14:29 | 50.94939 | -1.36137 | 53 ft | 2 kts | 24° |
| 2026-05-01 14:29 | 50.94928 | -1.36152 | 53 ft | 2 kts | 58° |
| 2026-05-01 14:30 | 50.94925 | -1.36193 | 53 ft | 0 kts | 110° |
| 2026-05-01 14:33 | 50.94915 | -1.36150 | 53 ft | 4 kts | 102° |
| 2026-05-01 14:33 | 50.94907 | -1.36110 | 53 ft | 5 kts | 109° |
| 2026-05-01 14:33 | 50.94896 | -1.36052 | 53 ft | 3 kts | 106° |
| 2026-05-01 14:33 | 50.94921 | -1.35995 | 53 ft | 12 kts | 22° |
| 2026-05-01 14:34 | 50.95013 | -1.35943 | 53 ft | 14 kts | 19° |
| 2026-05-01 14:34 | 50.95054 | -1.35903 | 53 ft | 7 kts | 75° |
| 2026-05-01 14:34 | 50.95050 | -1.35861 | 53 ft | 5 kts | 108° |
| 2026-05-01 14:34 | 50.95049 | -1.35858 | 53 ft | 0 kts | 108° |
| 2026-05-01 14:38 | 50.95049 | -1.35855 | 53 ft | 3 kts | 108° |
| 2026-05-01 14:38 | 50.95023 | -1.35730 | 53 ft | 8 kts | 99° |
| 2026-05-01 14:39 | 50.95069 | -1.35657 | 53 ft | 16 kts | 20° |
| 2026-05-01 14:39 | 50.95227 | -1.35562 | 53 ft | 25 kts | 19° |
| 2026-05-01 14:39 | 50.95414 | -1.35465 | 53 ft | 30 kts | 20° |
| 2026-05-01 14:39 | 50.95597 | -1.35361 | 53 ft | 21 kts | 20° |
| 2026-05-01 14:40 | 50.95746 | -1.35276 | 53 ft | 21 kts | 22° |
| 2026-05-01 14:40 | 50.95859 | -1.35260 | 53 ft | 11 kts | 353° |
| 2026-05-01 14:40 | 50.95880 | -1.35203 | 53 ft | 2 kts | 161° |
| 2026-05-01 14:40 | 50.95853 | -1.35217 | 54 ft | 0 kts | 203° |
| 2026-05-01 14:41 | 50.95851 | -1.35219 | 53 ft | 0 kts | 201° |
| 2026-05-01 14:41 | 50.95795 | -1.35251 | 54 ft | 48 kts | 201° |
| 2026-05-01 14:42 | 50.95132 | -1.35616 | 59 ft | 142 kts | 200° |
| 2026-05-01 14:42 | 50.94120 | -1.36227 | 551 ft | 170 kts | 205° |
| 2026-05-01 14:42 | 50.92971 | -1.37014 | 1150 ft | 199 kts | 203° |
| 2026-05-01 14:42 | 50.91665 | -1.37783 | 2089 ft | 205 kts | 200° |
| 2026-05-01 14:43 | 50.90308 | -1.38567 | 3032 ft | 211 kts | 201° |
| 2026-05-01 14:43 | 50.89007 | -1.39519 | 3974 ft | 215 kts | 215° |
| 2026-05-01 14:43 | 50.88162 | -1.41409 | 4967 ft | 219 kts | 250° |
| 2026-05-01 14:43 | 50.88155 | -1.43809 | 5897 ft | 229 kts | 283° |
| 2026-05-01 14:44 | 50.89017 | -1.45928 | 6794 ft | 241 kts | 315° |
| 2026-05-01 14:44 | 50.92265 | -1.46966 | 8426 ft | 255 kts | 14° |
| 2026-05-01 14:44 | 50.93971 | -1.46219 | 9188 ft | 259 kts | 19° |
| 2026-05-01 14:45 | 50.95581 | -1.44971 | 9979 ft | 260 kts | 34° |
| 2026-05-01 14:45 | 50.98032 | -1.40919 | 11449 ft | 260 kts | 60° |
| 2026-05-01 14:45 | 50.99192 | -1.38741 | 12181 ft | 266 kts | 49° |
| 2026-05-01 14:46 | 51.00603 | -1.36807 | 12902 ft | 270 kts | 41° |
| 2026-05-01 14:46 | 51.03828 | -1.33635 | 14219 ft | 279 kts | 30° |
| 2026-05-01 14:46 | 51.05580 | -1.32294 | 14840 ft | 283 kts | 27° |
| 2026-05-01 14:47 | 51.07431 | -1.31031 | 15068 ft | 301 kts | 24° |
| 2026-05-01 14:47 | 51.09440 | -1.29801 | 15138 ft | 320 kts | 22° |
| 2026-05-01 14:47 | 51.11623 | -1.28576 | 15153 ft | 336 kts | 21° |
| 2026-05-01 14:48 | 51.16266 | -1.26171 | 15149 ft | 357 kts | 19° |
| 2026-05-01 14:48 | 51.18680 | -1.24983 | 15149 ft | 364 kts | 18° |
| 2026-05-01 14:48 | 51.23776 | -1.23997 | 15133 ft | 373 kts | 4° |
| 2026-05-01 14:49 | 51.28970 | -1.23566 | 15141 ft | 378 kts | 4° |
| 2026-05-01 14:49 | 51.34226 | -1.23538 | 15114 ft | 379 kts | 348° |
| 2026-05-01 14:50 | 51.37507 | -1.25328 | 15119 ft | 367 kts | 338° |
| 2026-05-01 14:50 | 51.43683 | -1.29093 | 15135 ft | 351 kts | 338° |
| 2026-05-01 14:51 | 51.45960 | -1.30482 | 15134 ft | 348 kts | 338° |
| 2026-05-01 14:51 | 51.50399 | -1.33439 | 15098 ft | 341 kts | 326° |
| 2026-05-01 14:52 | 51.52858 | -1.39455 | 15142 ft | 326 kts | 287° |
| 2026-05-01 14:52 | 51.53633 | -1.42913 | 15147 ft | 328 kts | 285° |
| 2026-05-01 14:52 | 51.55140 | -1.49855 | 15142 ft | 336 kts | 285° |
| 2026-05-01 14:53 | 51.55913 | -1.53450 | 15141 ft | 344 kts | 285° |
| 2026-05-01 14:53 | 51.56696 | -1.57106 | 15137 ft | 350 kts | 285° |
| 2026-05-01 14:53 | 51.57492 | -1.60832 | 15137 ft | 354 kts | 285° |
| 2026-05-01 14:53 | 51.58283 | -1.64601 | 15135 ft | 356 kts | 284° |
| 2026-05-01 14:54 | 51.58756 | -1.68451 | 15146 ft | 353 kts | 273° |
| 2026-05-01 14:54 | 51.59043 | -1.72402 | 15136 ft | 355 kts | 272° |
| 2026-05-01 14:54 | 51.59322 | -1.76339 | 15141 ft | 356 kts | 272° |
| 2026-05-01 14:54 | 51.59600 | -1.80299 | 15140 ft | 357 kts | 272° |
| 2026-05-01 14:55 | 51.59882 | -1.84274 | 15132 ft | 357 kts | 272° |
| 2026-05-01 14:55 | 51.60159 | -1.88203 | 15132 ft | 353 kts | 272° |
| 2026-05-01 14:55 | 51.60436 | -1.92117 | 15129 ft | 345 kts | 272° |
| 2026-05-01 14:55 | 51.60701 | -1.95878 | 15128 ft | 340 kts | 272° |
| 2026-05-01 14:56 | 51.60961 | -1.99600 | 15131 ft | 335 kts | 272° |
| 2026-05-01 14:56 | 51.61121 | -2.03301 | 15121 ft | 328 kts | 263° |
| 2026-05-01 14:56 | 51.60447 | -2.06703 | 15131 ft | 313 kts | 236° |
| 2026-05-01 14:56 | 51.59181 | -2.09516 | 15152 ft | 310 kts | 229° |
| 2026-05-01 14:57 | 51.57887 | -2.12242 | 15149 ft | 310 kts | 230° |
| 2026-05-01 14:57 | 51.55420 | -2.17908 | 15139 ft | 310 kts | 231° |
| 2026-05-01 14:57 | 51.54189 | -2.20700 | 15141 ft | 308 kts | 229° |
| 2026-05-01 14:58 | 51.52805 | -2.23330 | 15134 ft | 307 kts | 225° |
| 2026-05-01 14:58 | 51.51400 | -2.25918 | 15127 ft | 307 kts | 226° |
| 2026-05-01 14:58 | 51.50015 | -2.28513 | 15126 ft | 306 kts | 226° |
| 2026-05-01 14:58 | 51.48654 | -2.31102 | 15122 ft | 306 kts | 227° |
| 2026-05-01 14:59 | 51.47280 | -2.33746 | 15125 ft | 305 kts | 227° |
| 2026-05-01 14:59 | 51.45935 | -2.36355 | 15128 ft | 305 kts | 227° |
| 2026-05-01 14:59 | 51.44583 | -2.38995 | 15126 ft | 305 kts | 227° |
| 2026-05-01 14:59 | 51.43247 | -2.41613 | 15128 ft | 306 kts | 228° |
| 2026-05-01 15:00 | 51.40759 | -2.47125 | 15109 ft | 313 kts | 245° |
| 2026-05-01 15:00 | 51.40280 | -2.50535 | 15156 ft | 316 kts | 257° |
| 2026-05-01 15:00 | 51.39928 | -2.54017 | 15148 ft | 317 kts | 257° |
| 2026-05-01 15:01 | 51.39581 | -2.57519 | 15132 ft | 318 kts | 257° |
| 2026-05-01 15:01 | 51.39234 | -2.61009 | 15146 ft | 318 kts | 257° |
| 2026-05-01 15:01 | 51.38884 | -2.64508 | 15153 ft | 318 kts | 257° |
| 2026-05-01 15:01 | 51.38530 | -2.67998 | 15033 ft | 313 kts | 256° |
| 2026-05-01 15:02 | 51.38200 | -2.71425 | 14905 ft | 309 kts | 259° |
| 2026-05-01 15:02 | 51.38150 | -2.72573 | 14858 ft | 309 kts | 263° |
| 2026-05-01 15:02 | 51.38235 | -2.78252 | 14198 ft | 298 kts | 268° |
| 2026-05-01 15:02 | 51.38316 | -2.81461 | 13696 ft | 286 kts | 268° |
| 2026-05-01 15:03 | 51.38393 | -2.84605 | 13195 ft | 276 kts | 267° |
| 2026-05-01 15:03 | 51.38427 | -2.87601 | 12690 ft | 266 kts | 262° |
| 2026-05-01 15:03 | 51.38200 | -2.90450 | 12197 ft | 256 kts | 256° |
| 2026-05-01 15:03 | 51.37900 | -2.93211 | 11701 ft | 250 kts | 254° |
| 2026-05-01 15:04 | 51.37546 | -2.95881 | 11207 ft | 244 kts | 253° |
| 2026-05-01 15:04 | 51.37189 | -2.98514 | 10706 ft | 239 kts | 253° |
| 2026-05-01 15:04 | 51.36839 | -3.01065 | 10210 ft | 236 kts | 253° |
| 2026-05-01 15:04 | 51.36487 | -3.03612 | 9708 ft | 232 kts | 253° |
| 2026-05-01 15:05 | 51.36142 | -3.06100 | 9210 ft | 229 kts | 253° |
| 2026-05-01 15:05 | 51.35772 | -3.08540 | 8714 ft | 225 kts | 250° |
| 2026-05-01 15:05 | 51.35354 | -3.10952 | 8211 ft | 223 kts | 250° |
| 2026-05-01 15:05 | 51.34945 | -3.13308 | 7716 ft | 220 kts | 250° |
| 2026-05-01 15:06 | 51.34537 | -3.15637 | 7201 ft | 219 kts | 250° |
| 2026-05-01 15:06 | 51.34124 | -3.17970 | 6597 ft | 221 kts | 249° |
| 2026-05-01 15:06 | 51.33422 | -3.20099 | 5956 ft | 218 kts | 225° |
| 2026-05-01 15:06 | 51.32137 | -3.21309 | 5323 ft | 217 kts | 195° |
| 2026-05-01 15:07 | 51.30661 | -3.21250 | 4705 ft | 221 kts | 165° |
| 2026-05-01 15:07 | 51.29367 | -3.19924 | 4076 ft | 227 kts | 134° |
| 2026-05-01 15:07 | 51.28525 | -3.17779 | 3463 ft | 230 kts | 120° |
| 2026-05-01 15:07 | 51.27768 | -3.15552 | 2846 ft | 231 kts | 120° |
| 2026-05-01 15:08 | 51.26991 | -3.13308 | 2279 ft | 229 kts | 120° |
| 2026-05-01 15:08 | 51.26227 | -3.11160 | 2054 ft | 212 kts | 120° |
| 2026-05-01 15:08 | 51.25642 | -3.09125 | 1968 ft | 193 kts | 100° |
| 2026-05-01 15:08 | 51.25832 | -3.07048 | 1960 ft | 193 kts | 62° |
| 2026-05-01 15:09 | 51.26769 | -3.05589 | 1955 ft | 193 kts | 25° |
| 2026-05-01 15:09 | 51.28092 | -3.05337 | 1951 ft | 193 kts | 347° |
| 2026-05-01 15:09 | 51.29319 | -3.06244 | 1959 ft | 198 kts | 329° |
| 2026-05-01 15:09 | 51.30544 | -3.07339 | 1954 ft | 206 kts | 329° |
| 2026-05-01 15:10 | 51.31564 | -3.08841 | 1944 ft | 199 kts | 302° |
| 2026-05-01 15:10 | 51.32756 | -3.12647 | 1925 ft | 172 kts | 296° |
| 2026-05-01 15:10 | 51.33271 | -3.14239 | 1941 ft | 157 kts | 296° |
| 2026-05-01 15:11 | 51.33763 | -3.15763 | 1933 ft | 148 kts | 296° |
| 2026-05-01 15:11 | 51.34632 | -3.18485 | 1918 ft | 125 kts | 295° |
| 2026-05-01 15:11 | 51.35034 | -3.19722 | 1955 ft | 129 kts | 297° |
| 2026-05-01 15:12 | 51.35445 | -3.20988 | 1894 ft | 128 kts | 297° |
| 2026-05-01 15:12 | 51.36282 | -3.23629 | 1570 ft | 135 kts | 297° |
| 2026-05-01 15:12 | 51.36681 | -3.24917 | 1339 ft | 124 kts | 296° |
| 2026-05-01 15:13 | 51.37786 | -3.28381 | 877 ft | 114 kts | 297° |
| 2026-05-01 15:14 | 51.38485 | -3.30629 | 566 ft | 112 kts | 298° |
| 2026-05-01 15:14 | 51.38844 | -3.31739 | 403 ft | 113 kts | 296° |
| 2026-05-01 15:14 | 51.39519 | -3.33889 | 213 ft | 95 kts | 297° |
| 2026-05-01 15:15 | 51.39787 | -3.34720 | 213 ft | 8 kts | 317° |
| 2026-05-01 15:15 | 51.39889 | -3.34691 | 213 ft | 0 kts | 31° |
| 2026-05-01 15:16 | 51.39915 | -3.34668 | 213 ft | 5 kts | 28° |
| 2026-05-01 15:16 | 51.39896 | -3.34502 | 213 ft | 11 kts | 118° |
| 2026-05-01 15:17 | 51.39838 | -3.34304 | 213 ft | 10 kts | 119° |
| 2026-05-01 15:18 | 51.39759 | -3.34052 | 213 ft | 2 kts | 108° |
| 2026-05-01 15:18 | 51.39761 | -3.34000 | 213 ft | 7 kts | 83° |
| 2026-05-01 15:19 | 51.39772 | -3.33886 | 213 ft | 0 kts | 82° |
| 2026-05-01 15:19 | 51.39772 | -3.33878 | 213 ft | 0 kts | 82° |